sensor_id;sensor_type;location;lat;lon;timestamp;P1;durP1;ratioP1;P2;durP2;ratioP2
58752;SDS011;44525;46.052;13.610;2022-11-15T00:01:33;19.08;;;11.23;;
58752;SDS011;44525;46.052;13.610;2022-11-15T00:03:59;21.40;;;10.65;;
58752;SDS011;44525;46.052;13.610;2022-11-15T00:06:24;19.38;;;11.45;;
58752;SDS011;44525;46.052;13.610;2022-11-15T00:08:50;15.88;;;10.60;;
58752;SDS011;44525;46.052;13.610;2022-11-15T00:11:15;17.77;;;10.85;;
58752;SDS011;44525;46.052;13.610;2022-11-15T00:13:40;19.25;;;11.50;;
58752;SDS011;44525;46.052;13.610;2022-11-15T00:16:06;20.42;;;12.05;;
58752;SDS011;44525;46.052;13.610;2022-11-15T00:18:33;20.85;;;11.93;;
58752;SDS011;44525;46.052;13.610;2022-11-15T00:21:03;18.38;;;11.15;;
58752;SDS011;44525;46.052;13.610;2022-11-15T00:23:31;17.65;;;10.38;;
58752;SDS011;44525;46.052;13.610;2022-11-15T00:25:57;21.75;;;10.20;;
58752;SDS011;44525;46.052;13.610;2022-11-15T00:28:23;17.70;;;10.43;;
58752;SDS011;44525;46.052;13.610;2022-11-15T00:30:49;22.45;;;10.98;;
58752;SDS011;44525;46.052;13.610;2022-11-15T00:33:15;18.02;;;10.68;;
58752;SDS011;44525;46.052;13.610;2022-11-15T00:35:40;15.15;;;10.00;;
58752;SDS011;44525;46.052;13.610;2022-11-15T00:38:06;18.92;;;11.05;;
58752;SDS011;44525;46.052;13.610;2022-11-15T00:40:31;16.50;;;10.18;;
58752;SDS011;44525;46.052;13.610;2022-11-15T00:42:57;20.50;;;10.95;;
58752;SDS011;44525;46.052;13.610;2022-11-15T00:45:23;17.92;;;10.95;;
58752;SDS011;44525;46.052;13.610;2022-11-15T00:47:49;17.42;;;10.77;;
58752;SDS011;44525;46.052;13.610;2022-11-15T00:50:15;16.73;;;10.65;;
58752;SDS011;44525;46.052;13.610;2022-11-15T00:52:40;20.25;;;11.65;;
58752;SDS011;44525;46.052;13.610;2022-11-15T00:55:06;18.38;;;11.23;;
58752;SDS011;44525;46.052;13.610;2022-11-15T00:57:32;17.45;;;10.32;;
58752;SDS011;44525;46.052;13.610;2022-11-15T00:59:57;19.98;;;12.32;;
58752;SDS011;44525;46.052;13.610;2022-11-15T01:02:23;18.35;;;11.13;;
58752;SDS011;44525;46.052;13.610;2022-11-15T01:04:48;20.13;;;10.68;;
58752;SDS011;44525;46.052;13.610;2022-11-15T01:07:14;19.17;;;11.35;;
58752;SDS011;44525;46.052;13.610;2022-11-15T01:09:39;17.30;;;10.60;;
58752;SDS011;44525;46.052;13.610;2022-11-15T01:12:05;17.75;;;11.38;;
58752;SDS011;44525;46.052;13.610;2022-11-15T01:14:30;18.50;;;11.25;;
58752;SDS011;44525;46.052;13.610;2022-11-15T01:16:56;16.77;;;10.85;;
58752;SDS011;44525;46.052;13.610;2022-11-15T01:19:21;16.15;;;10.07;;
58752;SDS011;44525;46.052;13.610;2022-11-15T01:21:50;18.25;;;10.98;;
58752;SDS011;44525;46.052;13.610;2022-11-15T01:24:15;17.60;;;10.50;;
58752;SDS011;44525;46.052;13.610;2022-11-15T01:26:41;16.63;;;10.05;;
58752;SDS011;44525;46.052;13.610;2022-11-15T01:29:06;16.70;;;10.18;;
58752;SDS011;44525;46.052;13.610;2022-11-15T01:31:32;17.80;;;9.70;;
58752;SDS011;44525;46.052;13.610;2022-11-15T01:33:57;17.00;;;10.02;;
58752;SDS011;44525;46.052;13.610;2022-11-15T01:36:23;18.40;;;10.82;;
58752;SDS011;44525;46.052;13.610;2022-11-15T01:38:58;19.17;;;11.00;;
58752;SDS011;44525;46.052;13.610;2022-11-15T01:41:26;17.77;;;10.57;;
58752;SDS011;44525;46.052;13.610;2022-11-15T01:43:57;17.30;;;10.30;;
58752;SDS011;44525;46.052;13.610;2022-11-15T01:47:05;17.42;;;10.48;;
58752;SDS011;44525;46.052;13.610;2022-11-15T01:52:20;18.67;;;9.50;;
58752;SDS011;44525;46.052;13.610;2022-11-15T01:54:49;16.23;;;9.45;;
58752;SDS011;44525;46.052;13.610;2022-11-15T01:57:20;16.50;;;10.57;;
58752;SDS011;44525;46.052;13.610;2022-11-15T01:59:46;19.75;;;10.50;;
58752;SDS011;44525;46.052;13.610;2022-11-15T02:02:12;17.55;;;10.63;;
58752;SDS011;44525;46.052;13.610;2022-11-15T02:04:45;17.23;;;9.95;;
58752;SDS011;44525;46.052;13.610;2022-11-15T02:07:13;15.40;;;9.88;;
58752;SDS011;44525;46.052;13.610;2022-11-15T02:09:42;16.73;;;9.57;;
58752;SDS011;44525;46.052;13.610;2022-11-15T02:12:09;18.42;;;10.43;;
58752;SDS011;44525;46.052;13.610;2022-11-15T02:14:38;16.38;;;10.05;;
58752;SDS011;44525;46.052;13.610;2022-11-15T02:20:13;15.60;;;9.93;;
58752;SDS011;44525;46.052;13.610;2022-11-15T02:31:59;18.10;;;10.27;;
58752;SDS011;44525;46.052;13.610;2022-11-15T02:37:34;17.38;;;10.27;;
58752;SDS011;44525;46.052;13.610;2022-11-15T02:42:30;20.00;;;9.63;;
58752;SDS011;44525;46.052;13.610;2022-11-15T02:45:20;17.05;;;10.25;;
58752;SDS011;44525;46.052;13.610;2022-11-15T02:47:54;18.05;;;10.85;;
58752;SDS011;44525;46.052;13.610;2022-11-15T02:50:25;19.33;;;9.63;;
58752;SDS011;44525;46.052;13.610;2022-11-15T02:52:53;18.25;;;9.52;;
58752;SDS011;44525;46.052;13.610;2022-11-15T02:57:52;16.75;;;9.23;;
58752;SDS011;44525;46.052;13.610;2022-11-15T03:00:38;16.40;;;9.98;;
58752;SDS011;44525;46.052;13.610;2022-11-15T03:03:19;14.00;;;8.52;;
58752;SDS011;44525;46.052;13.610;2022-11-15T03:08:44;15.13;;;8.95;;
58752;SDS011;44525;46.052;13.610;2022-11-15T03:11:14;19.75;;;10.50;;
58752;SDS011;44525;46.052;13.610;2022-11-15T03:13:52;17.38;;;9.85;;
58752;SDS011;44525;46.052;13.610;2022-11-15T03:16:23;15.13;;;9.05;;
58752;SDS011;44525;46.052;13.610;2022-11-15T03:21:40;17.10;;;10.20;;
58752;SDS011;44525;46.052;13.610;2022-11-15T03:24:06;20.65;;;10.30;;
58752;SDS011;44525;46.052;13.610;2022-11-15T03:26:34;18.02;;;10.60;;
58752;SDS011;44525;46.052;13.610;2022-11-15T03:29:16;17.13;;;9.60;;
58752;SDS011;44525;46.052;13.610;2022-11-15T03:31:45;16.60;;;9.52;;
58752;SDS011;44525;46.052;13.610;2022-11-15T03:34:32;21.33;;;9.95;;
58752;SDS011;44525;46.052;13.610;2022-11-15T03:37:09;17.90;;;10.07;;
58752;SDS011;44525;46.052;13.610;2022-11-15T03:39:38;17.23;;;9.32;;
58752;SDS011;44525;46.052;13.610;2022-11-15T03:42:51;15.20;;;8.98;;
58752;SDS011;44525;46.052;13.610;2022-11-15T03:46:01;13.27;;;8.50;;
58752;SDS011;44525;46.052;13.610;2022-11-15T03:48:09;16.50;;;9.10;;
58752;SDS011;44525;46.052;13.610;2022-11-15T03:50:38;17.63;;;10.18;;
58752;SDS011;44525;46.052;13.610;2022-11-15T03:53:04;16.08;;;9.13;;
58752;SDS011;44525;46.052;13.610;2022-11-15T03:55:31;15.40;;;9.02;;
58752;SDS011;44525;46.052;13.610;2022-11-15T03:57:57;17.25;;;9.02;;
58752;SDS011;44525;46.052;13.610;2022-11-15T04:00:24;15.93;;;9.45;;
58752;SDS011;44525;46.052;13.610;2022-11-15T04:02:51;17.02;;;10.05;;
58752;SDS011;44525;46.052;13.610;2022-11-15T04:05:16;15.00;;;9.57;;
58752;SDS011;44525;46.052;13.610;2022-11-15T04:07:42;16.60;;;8.85;;
58752;SDS011;44525;46.052;13.610;2022-11-15T04:10:08;14.80;;;8.57;;
58752;SDS011;44525;46.052;13.610;2022-11-15T04:12:42;15.80;;;8.55;;
58752;SDS011;44525;46.052;13.610;2022-11-15T04:15:12;14.73;;;8.80;;
58752;SDS011;44525;46.052;13.610;2022-11-15T04:20:22;14.80;;;8.75;;
58752;SDS011;44525;46.052;13.610;2022-11-15T04:25:56;15.85;;;8.90;;
58752;SDS011;44525;46.052;13.610;2022-11-15T04:28:24;13.23;;;7.85;;
58752;SDS011;44525;46.052;13.610;2022-11-15T04:30:50;14.45;;;8.73;;
58752;SDS011;44525;46.052;13.610;2022-11-15T04:33:16;18.17;;;8.82;;
58752;SDS011;44525;46.052;13.610;2022-11-15T04:35:41;15.88;;;9.48;;
58752;SDS011;44525;46.052;13.610;2022-11-15T04:38:08;14.40;;;8.55;;
58752;SDS011;44525;46.052;13.610;2022-11-15T04:40:35;15.95;;;9.07;;
58752;SDS011;44525;46.052;13.610;2022-11-15T04:43:01;14.98;;;9.27;;
58752;SDS011;44525;46.052;13.610;2022-11-15T04:45:27;13.80;;;8.73;;
58752;SDS011;44525;46.052;13.610;2022-11-15T04:47:54;15.90;;;9.65;;
58752;SDS011;44525;46.052;13.610;2022-11-15T04:50:20;18.63;;;10.75;;
58752;SDS011;44525;46.052;13.610;2022-11-15T04:52:55;17.17;;;10.20;;
58752;SDS011;44525;46.052;13.610;2022-11-15T04:55:20;16.25;;;9.77;;
58752;SDS011;44525;46.052;13.610;2022-11-15T04:57:46;24.90;;;15.68;;
58752;SDS011;44525;46.052;13.610;2022-11-15T05:00:12;22.85;;;13.02;;
58752;SDS011;44525;46.052;13.610;2022-11-15T05:02:39;14.65;;;9.60;;
58752;SDS011;44525;46.052;13.610;2022-11-15T05:05:24;14.05;;;9.25;;
58752;SDS011;44525;46.052;13.610;2022-11-15T05:07:50;15.98;;;8.95;;
58752;SDS011;44525;46.052;13.610;2022-11-15T05:10:16;17.50;;;9.82;;
58752;SDS011;44525;46.052;13.610;2022-11-15T05:12:41;21.00;;;11.38;;
58752;SDS011;44525;46.052;13.610;2022-11-15T05:15:07;16.13;;;10.32;;
58752;SDS011;44525;46.052;13.610;2022-11-15T05:17:33;19.30;;;11.73;;
58752;SDS011;44525;46.052;13.610;2022-11-15T05:19:59;15.93;;;10.13;;
58752;SDS011;44525;46.052;13.610;2022-11-15T05:22:24;15.80;;;9.93;;
58752;SDS011;44525;46.052;13.610;2022-11-15T05:24:50;18.45;;;10.88;;
58752;SDS011;44525;46.052;13.610;2022-11-15T05:27:15;16.77;;;10.07;;
58752;SDS011;44525;46.052;13.610;2022-11-15T05:29:41;16.42;;;9.93;;
58752;SDS011;44525;46.052;13.610;2022-11-15T05:32:07;17.92;;;10.55;;
58752;SDS011;44525;46.052;13.610;2022-11-15T05:34:33;18.83;;;11.00;;
58752;SDS011;44525;46.052;13.610;2022-11-15T05:37:00;20.13;;;11.63;;
58752;SDS011;44525;46.052;13.610;2022-11-15T05:39:25;16.83;;;9.85;;
58752;SDS011;44525;46.052;13.610;2022-11-15T05:41:55;16.50;;;9.52;;
58752;SDS011;44525;46.052;13.610;2022-11-15T05:44:27;16.17;;;9.65;;
58752;SDS011;44525;46.052;13.610;2022-11-15T05:46:54;14.82;;;9.30;;
58752;SDS011;44525;46.052;13.610;2022-11-15T05:49:22;17.13;;;9.48;;
58752;SDS011;44525;46.052;13.610;2022-11-15T05:51:52;16.30;;;8.70;;
58752;SDS011;44525;46.052;13.610;2022-11-15T05:54:19;15.63;;;9.18;;
58752;SDS011;44525;46.052;13.610;2022-11-15T05:56:47;15.95;;;8.88;;
58752;SDS011;44525;46.052;13.610;2022-11-15T05:59:14;19.08;;;9.85;;
58752;SDS011;44525;46.052;13.610;2022-11-15T06:01:40;17.02;;;9.98;;
58752;SDS011;44525;46.052;13.610;2022-11-15T06:04:07;13.60;;;8.70;;
58752;SDS011;44525;46.052;13.610;2022-11-15T06:06:32;21.38;;;10.25;;
58752;SDS011;44525;46.052;13.610;2022-11-15T06:08:58;15.63;;;9.77;;
58752;SDS011;44525;46.052;13.610;2022-11-15T06:11:23;15.70;;;9.95;;
58752;SDS011;44525;46.052;13.610;2022-11-15T06:13:49;17.52;;;10.38;;
58752;SDS011;44525;46.052;13.610;2022-11-15T06:16:14;16.20;;;9.60;;
58752;SDS011;44525;46.052;13.610;2022-11-15T06:18:39;15.88;;;9.68;;
58752;SDS011;44525;46.052;13.610;2022-11-15T06:21:05;21.13;;;10.02;;
58752;SDS011;44525;46.052;13.610;2022-11-15T06:23:32;26.23;;;10.18;;
58752;SDS011;44525;46.052;13.610;2022-11-15T06:25:58;16.00;;;11.90;;
58752;SDS011;44525;46.052;13.610;2022-11-15T06:28:27;16.98;;;11.07;;
58752;SDS011;44525;46.052;13.610;2022-11-15T06:30:54;17.40;;;11.35;;
58752;SDS011;44525;46.052;13.610;2022-11-15T06:33:20;16.77;;;9.10;;
58752;SDS011;44525;46.052;13.610;2022-11-15T06:35:45;25.38;;;9.20;;
58752;SDS011;44525;46.052;13.610;2022-11-15T06:38:11;17.58;;;9.68;;
58752;SDS011;44525;46.052;13.610;2022-11-15T06:40:37;14.43;;;9.18;;
58752;SDS011;44525;46.052;13.610;2022-11-15T06:43:04;13.95;;;8.93;;
58752;SDS011;44525;46.052;13.610;2022-11-15T06:45:30;17.83;;;10.10;;
58752;SDS011;44525;46.052;13.610;2022-11-15T06:47:56;15.57;;;9.77;;
58752;SDS011;44525;46.052;13.610;2022-11-15T06:50:22;13.55;;;9.07;;
58752;SDS011;44525;46.052;13.610;2022-11-15T06:52:48;14.13;;;9.27;;
58752;SDS011;44525;46.052;13.610;2022-11-15T06:55:13;14.65;;;9.50;;
58752;SDS011;44525;46.052;13.610;2022-11-15T06:57:46;15.52;;;9.88;;
58752;SDS011;44525;46.052;13.610;2022-11-15T07:00:15;14.30;;;9.45;;
58752;SDS011;44525;46.052;13.610;2022-11-15T07:02:42;16.63;;;10.50;;
58752;SDS011;44525;46.052;13.610;2022-11-15T07:05:08;15.52;;;9.88;;
58752;SDS011;44525;46.052;13.610;2022-11-15T07:07:34;20.90;;;11.00;;
58752;SDS011;44525;46.052;13.610;2022-11-15T07:09:59;16.80;;;11.07;;
58752;SDS011;44525;46.052;13.610;2022-11-15T07:12:25;17.88;;;12.13;;
58752;SDS011;44525;46.052;13.610;2022-11-15T07:14:50;18.85;;;12.63;;
58752;SDS011;44525;46.052;13.610;2022-11-15T07:17:16;30.60;;;16.25;;
58752;SDS011;44525;46.052;13.610;2022-11-15T07:19:41;37.95;;;17.20;;
58752;SDS011;44525;46.052;13.610;2022-11-15T07:22:07;32.70;;;18.95;;
58752;SDS011;44525;46.052;13.610;2022-11-15T07:24:32;24.05;;;16.00;;
58752;SDS011;44525;46.052;13.610;2022-11-15T07:26:57;22.08;;;13.23;;
58752;SDS011;44525;46.052;13.610;2022-11-15T07:29:23;17.42;;;10.55;;
58752;SDS011;44525;46.052;13.610;2022-11-15T07:31:49;17.02;;;10.35;;
58752;SDS011;44525;46.052;13.610;2022-11-15T07:34:15;17.73;;;11.20;;
58752;SDS011;44525;46.052;13.610;2022-11-15T07:36:41;17.38;;;10.48;;
58752;SDS011;44525;46.052;13.610;2022-11-15T07:39:07;21.80;;;11.93;;
58752;SDS011;44525;46.052;13.610;2022-11-15T07:41:32;16.05;;;11.18;;
58752;SDS011;44525;46.052;13.610;2022-11-15T07:43:58;20.90;;;12.38;;
58752;SDS011;44525;46.052;13.610;2022-11-15T07:46:23;21.92;;;12.05;;
58752;SDS011;44525;46.052;13.610;2022-11-15T07:48:49;23.48;;;12.13;;
58752;SDS011;44525;46.052;13.610;2022-11-15T07:51:15;23.25;;;13.50;;
58752;SDS011;44525;46.052;13.610;2022-11-15T07:53:42;22.83;;;13.30;;
58752;SDS011;44525;46.052;13.610;2022-11-15T07:56:08;22.63;;;13.50;;
58752;SDS011;44525;46.052;13.610;2022-11-15T07:58:34;26.42;;;13.98;;
58752;SDS011;44525;46.052;13.610;2022-11-15T08:01:04;32.67;;;14.75;;
58752;SDS011;44525;46.052;13.610;2022-11-15T08:03:30;25.75;;;13.57;;
58752;SDS011;44525;46.052;13.610;2022-11-15T08:05:56;21.27;;;12.93;;
58752;SDS011;44525;46.052;13.610;2022-11-15T08:08:22;26.02;;;13.65;;
58752;SDS011;44525;46.052;13.610;2022-11-15T08:10:47;21.30;;;12.07;;
58752;SDS011;44525;46.052;13.610;2022-11-15T08:13:13;17.88;;;11.43;;
58752;SDS011;44525;46.052;13.610;2022-11-15T08:15:39;20.67;;;11.30;;
58752;SDS011;44525;46.052;13.610;2022-11-15T08:18:08;20.60;;;11.02;;
58752;SDS011;44525;46.052;13.610;2022-11-15T08:20:36;20.38;;;11.65;;
58752;SDS011;44525;46.052;13.610;2022-11-15T08:23:02;17.52;;;11.52;;
58752;SDS011;44525;46.052;13.610;2022-11-15T08:25:29;19.55;;;12.32;;
58752;SDS011;44525;46.052;13.610;2022-11-15T08:27:57;23.42;;;11.82;;
58752;SDS011;44525;46.052;13.610;2022-11-15T08:30:24;20.80;;;10.50;;
58752;SDS011;44525;46.052;13.610;2022-11-15T08:32:50;18.77;;;10.43;;
58752;SDS011;44525;46.052;13.610;2022-11-15T08:35:17;16.80;;;10.75;;
58752;SDS011;44525;46.052;13.610;2022-11-15T08:37:43;18.67;;;10.77;;
58752;SDS011;44525;46.052;13.610;2022-11-15T08:40:09;19.48;;;10.75;;
58752;SDS011;44525;46.052;13.610;2022-11-15T08:42:36;21.08;;;11.48;;
58752;SDS011;44525;46.052;13.610;2022-11-15T08:45:02;19.83;;;11.43;;
58752;SDS011;44525;46.052;13.610;2022-11-15T08:47:28;23.55;;;11.30;;
58752;SDS011;44525;46.052;13.610;2022-11-15T08:49:54;20.83;;;10.52;;
58752;SDS011;44525;46.052;13.610;2022-11-15T08:52:19;22.80;;;11.25;;
58752;SDS011;44525;46.052;13.610;2022-11-15T08:54:45;20.55;;;11.07;;
58752;SDS011;44525;46.052;13.610;2022-11-15T08:57:11;21.55;;;11.20;;
58752;SDS011;44525;46.052;13.610;2022-11-15T08:59:37;25.27;;;14.05;;
58752;SDS011;44525;46.052;13.610;2022-11-15T09:02:02;19.77;;;11.35;;
58752;SDS011;44525;46.052;13.610;2022-11-15T09:04:28;20.70;;;11.50;;
58752;SDS011;44525;46.052;13.610;2022-11-15T09:06:54;19.67;;;11.40;;
58752;SDS011;44525;46.052;13.610;2022-11-15T09:09:19;17.25;;;10.88;;
58752;SDS011;44525;46.052;13.610;2022-11-15T09:11:45;21.20;;;10.82;;
58752;SDS011;44525;46.052;13.610;2022-11-15T09:14:11;18.50;;;11.43;;
58752;SDS011;44525;46.052;13.610;2022-11-15T09:16:37;20.70;;;11.60;;
58752;SDS011;44525;46.052;13.610;2022-11-15T09:19:03;19.45;;;10.65;;
58752;SDS011;44525;46.052;13.610;2022-11-15T09:21:29;18.42;;;11.65;;
58752;SDS011;44525;46.052;13.610;2022-11-15T09:23:55;18.35;;;12.38;;
58752;SDS011;44525;46.052;13.610;2022-11-15T09:26:21;23.80;;;12.98;;
58752;SDS011;44525;46.052;13.610;2022-11-15T09:28:46;20.85;;;12.50;;
58752;SDS011;44525;46.052;13.610;2022-11-15T09:31:12;24.52;;;14.25;;
58752;SDS011;44525;46.052;13.610;2022-11-15T09:33:37;23.13;;;15.35;;
58752;SDS011;44525;46.052;13.610;2022-11-15T09:36:04;22.45;;;13.93;;
58752;SDS011;44525;46.052;13.610;2022-11-15T09:38:34;27.60;;;15.13;;
58752;SDS011;44525;46.052;13.610;2022-11-15T09:41:34;24.85;;;14.18;;
58752;SDS011;44525;46.052;13.610;2022-11-15T09:49:23;20.38;;;11.15;;
58752;SDS011;44525;46.052;13.610;2022-11-15T09:51:49;21.38;;;11.00;;
58752;SDS011;44525;46.052;13.610;2022-11-15T09:54:20;18.85;;;11.13;;
58752;SDS011;44525;46.052;13.610;2022-11-15T09:56:53;22.08;;;11.57;;
58752;SDS011;44525;46.052;13.610;2022-11-15T10:04:39;20.48;;;11.73;;
58752;SDS011;44525;46.052;13.610;2022-11-15T10:10:08;23.92;;;13.38;;
58752;SDS011;44525;46.052;13.610;2022-11-15T10:12:55;19.90;;;10.95;;
58752;SDS011;44525;46.052;13.610;2022-11-15T10:15:21;17.13;;;9.77;;
58752;SDS011;44525;46.052;13.610;2022-11-15T10:23:34;15.82;;;9.85;;
58752;SDS011;44525;46.052;13.610;2022-11-15T10:25:50;16.67;;;10.55;;
58752;SDS011;44525;46.052;13.610;2022-11-15T10:30:51;14.43;;;9.27;;
58752;SDS011;44525;46.052;13.610;2022-11-15T10:33:34;16.13;;;9.20;;
58752;SDS011;44525;46.052;13.610;2022-11-15T10:41:13;12.25;;;8.13;;
58752;SDS011;44525;46.052;13.610;2022-11-15T10:43:39;11.73;;;6.82;;
58752;SDS011;44525;46.052;13.610;2022-11-15T10:46:25;13.57;;;7.53;;
58752;SDS011;44525;46.052;13.610;2022-11-15T10:48:50;14.32;;;7.93;;
58752;SDS011;44525;46.052;13.610;2022-11-15T10:51:19;12.82;;;7.80;;
58752;SDS011;44525;46.052;13.610;2022-11-15T10:53:47;13.43;;;8.18;;
58752;SDS011;44525;46.052;13.610;2022-11-15T10:56:14;14.45;;;8.65;;
58752;SDS011;44525;46.052;13.610;2022-11-15T10:58:44;11.88;;;8.02;;
58752;SDS011;44525;46.052;13.610;2022-11-15T11:01:17;12.38;;;8.13;;
58752;SDS011;44525;46.052;13.610;2022-11-15T11:03:45;10.90;;;6.82;;
58752;SDS011;44525;46.052;13.610;2022-11-15T11:06:24;9.48;;;6.57;;
58752;SDS011;44525;46.052;13.610;2022-11-15T11:09:00;9.63;;;5.55;;
58752;SDS011;44525;46.052;13.610;2022-11-15T11:11:47;8.02;;;5.38;;
58752;SDS011;44525;46.052;13.610;2022-11-15T11:16:55;8.80;;;5.93;;
58752;SDS011;44525;46.052;13.610;2022-11-15T11:24:53;8.52;;;4.88;;
58752;SDS011;44525;46.052;13.610;2022-11-15T11:30:23;8.32;;;5.05;;
58752;SDS011;44525;46.052;13.610;2022-11-15T11:46:10;6.25;;;4.43;;
58752;SDS011;44525;46.052;13.610;2022-11-15T11:48:42;7.22;;;4.28;;
58752;SDS011;44525;46.052;13.610;2022-11-15T11:51:31;7.32;;;4.72;;
58752;SDS011;44525;46.052;13.610;2022-11-15T11:54:05;6.60;;;4.60;;
58752;SDS011;44525;46.052;13.610;2022-11-15T11:56:31;7.05;;;4.63;;
58752;SDS011;44525;46.052;13.610;2022-11-15T11:59:07;7.65;;;4.75;;
58752;SDS011;44525;46.052;13.610;2022-11-15T12:01:50;8.05;;;4.30;;
58752;SDS011;44525;46.052;13.610;2022-11-15T12:06:58;9.13;;;4.70;;
58752;SDS011;44525;46.052;13.610;2022-11-15T12:15:20;8.75;;;4.57;;
58752;SDS011;44525;46.052;13.610;2022-11-15T12:17:49;8.07;;;4.60;;
58752;SDS011;44525;46.052;13.610;2022-11-15T12:20:22;6.60;;;4.38;;
58752;SDS011;44525;46.052;13.610;2022-11-15T12:31:02;6.07;;;4.28;;
58752;SDS011;44525;46.052;13.610;2022-11-15T12:33:32;7.78;;;4.50;;
58752;SDS011;44525;46.052;13.610;2022-11-15T12:36:12;12.60;;;7.35;;
58752;SDS011;44525;46.052;13.610;2022-11-15T12:43:55;5.60;;;4.13;;
58752;SDS011;44525;46.052;13.610;2022-11-15T12:48:54;6.30;;;4.40;;
58752;SDS011;44525;46.052;13.610;2022-11-15T12:52:04;6.38;;;4.22;;
58752;SDS011;44525;46.052;13.610;2022-11-15T12:57:21;9.77;;;4.80;;
58752;SDS011;44525;46.052;13.610;2022-11-15T12:59:51;7.07;;;4.60;;
58752;SDS011;44525;46.052;13.610;2022-11-15T13:02:23;8.63;;;4.38;;
58752;SDS011;44525;46.052;13.610;2022-11-15T13:04:52;15.68;;;11.20;;
58752;SDS011;44525;46.052;13.610;2022-11-15T13:20:26;9.23;;;5.72;;
58752;SDS011;44525;46.052;13.610;2022-11-15T13:23:13;13.65;;;5.85;;
58752;SDS011;44525;46.052;13.610;2022-11-15T13:28:38;10.13;;;6.28;;
58752;SDS011;44525;46.052;13.610;2022-11-15T13:31:25;10.10;;;6.50;;
58752;SDS011;44525;46.052;13.610;2022-11-15T13:33:59;9.27;;;6.25;;
58752;SDS011;44525;46.052;13.610;2022-11-15T13:36:32;11.77;;;6.55;;
58752;SDS011;44525;46.052;13.610;2022-11-15T13:39:05;10.55;;;6.47;;
58752;SDS011;44525;46.052;13.610;2022-11-15T13:41:44;9.85;;;6.85;;
58752;SDS011;44525;46.052;13.610;2022-11-15T13:44:19;12.85;;;6.15;;
58752;SDS011;44525;46.052;13.610;2022-11-15T13:47:00;11.73;;;7.45;;
58752;SDS011;44525;46.052;13.610;2022-11-15T13:49:31;10.20;;;6.93;;
58752;SDS011;44525;46.052;13.610;2022-11-15T13:51:59;12.82;;;6.68;;
58752;SDS011;44525;46.052;13.610;2022-11-15T13:54:43;12.35;;;7.25;;
58752;SDS011;44525;46.052;13.610;2022-11-15T13:57:18;9.48;;;6.72;;
58752;SDS011;44525;46.052;13.610;2022-11-15T13:59:51;12.02;;;7.30;;
58752;SDS011;44525;46.052;13.610;2022-11-15T14:02:27;15.52;;;8.73;;
58752;SDS011;44525;46.052;13.610;2022-11-15T14:07:44;16.90;;;8.35;;
58752;SDS011;44525;46.052;13.610;2022-11-15T14:12:58;12.85;;;7.75;;
58752;SDS011;44525;46.052;13.610;2022-11-15T14:15:29;14.77;;;8.63;;
58752;SDS011;44525;46.052;13.610;2022-11-15T14:17:55;14.50;;;9.73;;
58752;SDS011;44525;46.052;13.610;2022-11-15T14:20:31;13.50;;;8.00;;
58752;SDS011;44525;46.052;13.610;2022-11-15T14:23:05;13.25;;;9.02;;
58752;SDS011;44525;46.052;13.610;2022-11-15T14:25:54;15.23;;;8.20;;
58752;SDS011;44525;46.052;13.610;2022-11-15T14:30:47;14.25;;;9.10;;
58752;SDS011;44525;46.052;13.610;2022-11-15T14:33:22;13.45;;;8.10;;
58752;SDS011;44525;46.052;13.610;2022-11-15T14:35:48;14.02;;;9.25;;
58752;SDS011;44525;46.052;13.610;2022-11-15T14:38:15;16.77;;;9.95;;
58752;SDS011;44525;46.052;13.610;2022-11-15T14:40:41;18.02;;;11.13;;
58752;SDS011;44525;46.052;13.610;2022-11-15T14:43:08;14.43;;;9.35;;
58752;SDS011;44525;46.052;13.610;2022-11-15T14:45:36;19.05;;;11.77;;
58752;SDS011;44525;46.052;13.610;2022-11-15T14:48:02;15.63;;;9.68;;
58752;SDS011;44525;46.052;13.610;2022-11-15T14:50:28;15.52;;;8.35;;
58752;SDS011;44525;46.052;13.610;2022-11-15T14:52:54;17.48;;;9.15;;
58752;SDS011;44525;46.052;13.610;2022-11-15T14:57:56;13.73;;;9.20;;
58752;SDS011;44525;46.052;13.610;2022-11-15T15:00:22;13.75;;;9.70;;
58752;SDS011;44525;46.052;13.610;2022-11-15T15:02:48;16.00;;;9.98;;
58752;SDS011;44525;46.052;13.610;2022-11-15T15:05:19;18.65;;;11.93;;
58752;SDS011;44525;46.052;13.610;2022-11-15T15:07:45;16.25;;;11.07;;
58752;SDS011;44525;46.052;13.610;2022-11-15T15:10:11;19.08;;;11.65;;
58752;SDS011;44525;46.052;13.610;2022-11-15T15:12:38;18.13;;;10.70;;
58752;SDS011;44525;46.052;13.610;2022-11-15T15:15:04;18.27;;;11.32;;
58752;SDS011;44525;46.052;13.610;2022-11-15T15:17:30;18.58;;;11.70;;
58752;SDS011;44525;46.052;13.610;2022-11-15T15:19:56;22.85;;;14.93;;
58752;SDS011;44525;46.052;13.610;2022-11-15T15:22:21;28.50;;;18.52;;
58752;SDS011;44525;46.052;13.610;2022-11-15T15:24:50;30.23;;;20.13;;
58752;SDS011;44525;46.052;13.610;2022-11-15T15:27:16;33.72;;;21.30;;
58752;SDS011;44525;46.052;13.610;2022-11-15T15:29:41;55.80;;;36.10;;
58752;SDS011;44525;46.052;13.610;2022-11-15T15:32:07;27.50;;;16.75;;
58752;SDS011;44525;46.052;13.610;2022-11-15T15:34:34;22.30;;;14.63;;
58752;SDS011;44525;46.052;13.610;2022-11-15T15:39:33;32.97;;;18.48;;
58752;SDS011;44525;46.052;13.610;2022-11-15T15:41:59;26.42;;;15.63;;
58752;SDS011;44525;46.052;13.610;2022-11-15T15:44:24;22.77;;;15.13;;
58752;SDS011;44525;46.052;13.610;2022-11-15T15:46:50;29.75;;;16.95;;
58752;SDS011;44525;46.052;13.610;2022-11-15T15:49:16;26.88;;;15.85;;
58752;SDS011;44525;46.052;13.610;2022-11-15T15:51:41;56.88;;;31.50;;
58752;SDS011;44525;46.052;13.610;2022-11-15T15:54:07;60.47;;;34.13;;
58752;SDS011;44525;46.052;13.610;2022-11-15T15:56:32;120.75;;;63.85;;
58752;SDS011;44525;46.052;13.610;2022-11-15T15:58:57;64.45;;;37.17;;
58752;SDS011;44525;46.052;13.610;2022-11-15T16:01:23;22.67;;;13.55;;
58752;SDS011;44525;46.052;13.610;2022-11-15T16:03:49;22.15;;;13.63;;
58752;SDS011;44525;46.052;13.610;2022-11-15T16:09:04;62.70;;;43.20;;
58752;SDS011;44525;46.052;13.610;2022-11-15T16:11:30;64.20;;;46.22;;
58752;SDS011;44525;46.052;13.610;2022-11-15T16:13:56;79.18;;;48.05;;
58752;SDS011;44525;46.052;13.610;2022-11-15T16:16:21;152.68;;;72.55;;
58752;SDS011;44525;46.052;13.610;2022-11-15T16:18:47;155.30;;;78.20;;
58752;SDS011;44525;46.052;13.610;2022-11-15T16:21:13;96.18;;;56.05;;
58752;SDS011;44525;46.052;13.610;2022-11-15T16:23:38;67.78;;;42.45;;
58752;SDS011;44525;46.052;13.610;2022-11-15T16:26:10;52.88;;;35.15;;
58752;SDS011;44525;46.052;13.610;2022-11-15T16:28:44;49.25;;;32.00;;
58752;SDS011;44525;46.052;13.610;2022-11-15T16:31:10;38.70;;;26.40;;
58752;SDS011;44525;46.052;13.610;2022-11-15T16:33:37;43.03;;;24.42;;
58752;SDS011;44525;46.052;13.610;2022-11-15T16:36:04;28.38;;;20.25;;
58752;SDS011;44525;46.052;13.610;2022-11-15T16:38:31;30.02;;;21.67;;
58752;SDS011;44525;46.052;13.610;2022-11-15T16:40:57;28.60;;;19.25;;
58752;SDS011;44525;46.052;13.610;2022-11-15T16:43:22;26.98;;;17.63;;
58752;SDS011;44525;46.052;13.610;2022-11-15T16:45:49;27.60;;;18.23;;
58752;SDS011;44525;46.052;13.610;2022-11-15T16:48:22;26.45;;;19.42;;
58752;SDS011;44525;46.052;13.610;2022-11-15T16:50:55;23.92;;;16.10;;